Alberta, VA

1:44 AM EDT on April 24, 2017 (GMT -0400)
Kenbridge Historic District | | Change Station

Elev 489 ft 36.96 °N, 78.12 °W | Updated 19 seconds ago

Overcast
Overcast
50.5 °F
Feels Like 50.5 °F
N
2.7
Wind Variable Wind from SE
Gusts 4.9 mph

Today
High -- | Low -- °F
--% Chance of Precip.
Yesterday
High -- | Low -- °F
Precip. -- in
Pressure 30.05 in
Visibility 5.0 miles
Clouds Overcast 500 ft
Dew Point 50 °F
Humidity 99%
Rainfall 0.05 in
Snow Depth Not available.
6:25 AM 7:54 PM
Waning Crescent, 7% visible
METAR KAVC 240536Z AUTO 03004KT 5SM OVC005 10/10 A3005 RMK AO2 T01020102
Pressure 30.05 in
Visibility 5.0 miles
Clouds Overcast 500 ft
Dew Point 50 °F
Humidity 99%
Rainfall 0.05 in
Snow Depth Not available.
6:25 AM 7:54 PM
Waning Crescent, 7% visible
METAR KAVC 240536Z AUTO 03004KT 5SM OVC005 10/10 A3005 RMK AO2 T01020102

Get Severe Weather Alerts

Thanks for signing up!

Be on the lookout for a verification email in your inbox.

You'll start receiving the daily forecast at 8 AM.

×

10-Day Weather Forecast

Almanac

Astronomy

Apr. 24, 2017 Rise Set
Actual Time
Civil Twilight
Nautical Twilight
Astronomical Twilight
Moon
Length of Visible Light
Length of Day
Tomorrow will be .
, % of the Moon is Illuminated

Today's Extremes

State Highs State Lows

Community

WunderPhotos

WunderBlog® & News

Nearby

Air Quality

  Air Quality AQ Index Pollutant
Not available.

Snow Depth

Station Depth Elevation

Earthquake Activity

City Distance Mag. Time & Date
Minimum magnitude displayed is 2.5.

Coastal Water Temperatures

Place Temperature

Stations

Nearby Weather Stations

Station Location Temp. Windchill Dew Point Humidity Wind Precip. Elev Updated Type
                   

Watches & Warnings

There are currently no watches in effect.